Terminal Aerodrome Forecast
Issued by NWS Jackson, MS

Home | Current Version | Previous Version | Text Only | Print | Product List | Glossary On
Versions: 1 2 3 4 5 6 7 8 9 10 11 12 13 14 15 16 17 18 19
359
FTUS44 KJAN 190301 AAA
TAFGLH
TAF AMD
KGLH 190301Z 1903/1924 10008KT 5SM RA BR SCT020 BKN050 OVC100
     FM190900 16008G16KT 3SM +TSRA BR BKN008CB OVC090
     FM191500 19011G22KT 2SM +TSRA BR BKN006CB OVC090
     FM192100 22009KT 6SM -TSRA BR SCT006 BKN050CB OVC090=

USA.gov is the U.S. government's official web portal to all federal, state and local government web resources and services.